Dolphin — WTD6974 — position and weather

sailwx.info

Track history (hours):
 
Tides and Currents Weather Stations Pressure Air Temp Water Temp Dewpoint Dewpoint Depression Visibility Wind Speed Wind Dir Waves Ship Positions

Dolphin

Owner: PENN MARITIME INC, Seattle, WA. More information available from US FCC via Universal Licensing System and Coast Guard Vessel Documentation Center.

Last reported at 2014-Oct-27 22:05 UTC. Time now 2014-Nov-01 02:02 UTC.
Position N 29°29' W 094°52'.

Length 41 m; draft 6.9 m.

Type: Towing. MMSI: 366920980.

Date/timePositionNaut miles runAvg speedWind from/ knotsBaromVisibWave heightAir tempDewpointWater temp
2014-Oct-27 22:05N 29°29' W 094°52'4 7.3
2014-Oct-27 21:33N 29°33' W 094°54'7 7.2
2014-Oct-27 20:32N 29°39' W 094°58'7 6.5
2014-Oct-27 19:29N 29°44' W 095°03'4 0.5
2014-Oct-27 12:32N 29°44' W 095°07'0 0.0
2014-Oct-27 11:33N 29°44' W 095°07'0 0.0
2014-Oct-26 14:25N 29°44' W 095°07'4 4.5
2014-Oct-26 13:33N 29°44' W 095°03'7 7.0
2014-Oct-26 12:33N 29°38' W 094°58'20 2.5
2014-Oct-26 04:21N 29°21' W 094°46'0 0.0
2014-Oct-26 03:21N 29°21' W 094°46'0 0.0
2014-Oct-25 14:24N 29°21' W 094°45'0 0.0
2014-Oct-25 13:31N 29°21' W 094°45'0 0.0
2014-Oct-25 11:32N 29°21' W 094°45'0 0.0
2014-Oct-25 10:21N 29°21' W 094°45'0 0.1
2014-Oct-25 09:30N 29°21' W 094°45'  
2014-Oct-22 05:13N 29°21' W 094°45'  
Track history (hours):
 
Tides and Currents Weather Stations Pressure Air Temp Water Temp Dewpoint Dewpoint Depression Visibility Wind Speed Wind Dir Waves Ship Positions

Dolphin

Owner: PENN MARITIME INC, Seattle, WA. More information available from US FCC via Universal Licensing System and Coast Guard Vessel Documentation Center.

Last reported at 2014-Oct-27 22:05 UTC. Time now 2014-Nov-01 02:02 UTC.
Position N 29°29' W 094°52'.

Length 41 m; draft 6.9 m.

Type: Towing. MMSI: 366920980.

Date/timePositionNaut miles runAvg speedWind from/ knotsBaromVisibWave heightAir tempDewpointWater temp
2014-Oct-27 22:05N 29°29' W 094°52'4 7.3
2014-Oct-27 21:33N 29°33' W 094°54'7 7.2
2014-Oct-27 20:32N 29°39' W 094°58'7 6.5
2014-Oct-27 19:29N 29°44' W 095°03'4 0.5
2014-Oct-27 12:32N 29°44' W 095°07'0 0.0
2014-Oct-27 11:33N 29°44' W 095°07'0 0.0
2014-Oct-26 14:25N 29°44' W 095°07'4 4.5
2014-Oct-26 13:33N 29°44' W 095°03'7 7.0
2014-Oct-26 12:33N 29°38' W 094°58'20 2.5
2014-Oct-26 04:21N 29°21' W 094°46'0 0.0
2014-Oct-26 03:21N 29°21' W 094°46'0 0.0
2014-Oct-25 14:24N 29°21' W 094°45'0 0.0
2014-Oct-25 13:31N 29°21' W 094°45'0 0.0
2014-Oct-25 11:32N 29°21' W 094°45'0 0.0
2014-Oct-25 10:21N 29°21' W 094°45'0 0.1
2014-Oct-25 09:30N 29°21' W 094°45'  
2014-Oct-22 05:13N 29°21' W 094°45'  

Dump ship's entire track history